createdAt,value
2023-08-05T00:00:44.659Z,25.49
2023-08-05T00:02:47.312Z,25.36
2023-08-05T00:04:49.936Z,25.26
2023-08-05T00:06:52.786Z,25.15
2023-08-05T00:08:55.452Z,25.05
2023-08-05T00:10:58.000Z,24.91
2023-08-05T00:13:00.639Z,24.80
2023-08-05T00:15:03.339Z,24.71
2023-08-05T00:17:06.216Z,24.59
2023-08-05T00:19:09.067Z,24.50
2023-08-05T00:21:11.603Z,24.39
2023-08-05T00:23:14.086Z,24.28
2023-08-05T00:25:16.713Z,24.15
2023-08-05T00:27:19.263Z,24.06
2023-08-05T00:29:21.781Z,23.97
2023-08-05T00:31:24.377Z,23.85
2023-08-05T00:33:26.939Z,23.77
2023-08-05T00:35:29.657Z,23.68
2023-08-05T00:37:32.837Z,23.57
2023-08-05T00:39:35.850Z,23.45
2023-08-05T00:41:38.394Z,23.35
2023-08-05T00:43:40.925Z,23.29
2023-08-05T00:45:43.771Z,23.20
2023-08-05T00:47:46.460Z,23.10
2023-08-05T00:49:54.589Z,23.00
2023-08-05T00:51:57.384Z,22.90
2023-08-05T00:53:59.942Z,22.82
2023-08-05T00:56:02.770Z,22.76
2023-08-05T00:58:05.320Z,22.69
2023-08-05T01:00:08.592Z,22.63
2023-08-05T01:02:11.243Z,22.57
2023-08-05T01:04:13.795Z,22.47
2023-08-05T01:06:17.502Z,22.45
2023-08-05T01:08:23.300Z,22.40
2023-08-05T01:10:25.844Z,22.32
2023-08-05T01:12:28.431Z,22.27
2023-08-05T01:14:31.355Z,22.18
2023-08-05T01:16:33.844Z,22.17
2023-08-05T01:18:38.460Z,22.11
2023-08-05T01:20:52.283Z,22.02
2023-08-05T01:22:56.989Z,21.97
2023-08-05T01:25:11.162Z,21.91
2023-08-05T01:27:13.929Z,21.83
2023-08-05T01:29:16.556Z,21.80
2023-08-05T01:31:20.456Z,21.72
2023-08-05T01:33:23.958Z,21.70
2023-08-05T01:35:26.492Z,21.60
2023-08-05T01:37:29.049Z,21.53
2023-08-05T01:39:31.587Z,21.45
2023-08-05T01:41:34.479Z,21.37
2023-08-05T01:43:36.958Z,21.32
2023-08-05T01:45:39.492Z,21.25
2023-08-05T01:47:41.998Z,21.16
2023-08-05T01:49:44.524Z,21.16
2023-08-05T01:51:47.049Z,21.10
2023-08-05T01:53:49.839Z,21.06
2023-08-05T01:55:52.377Z,20.98
2023-08-05T01:57:54.915Z,20.90
2023-08-05T01:59:57.496Z,20.88
2023-08-05T02:02:00.093Z,20.83
2023-08-05T02:04:02.753Z,20.77
2023-08-05T02:06:05.329Z,20.71
2023-08-05T02:08:07.838Z,20.68
2023-08-05T02:10:10.683Z,20.63
2023-08-05T02:12:13.187Z,20.54
2023-08-05T02:14:15.773Z,20.52
2023-08-05T02:16:18.337Z,20.47
2023-08-05T02:18:20.846Z,20.40
2023-08-05T02:20:23.354Z,20.37
2023-08-05T02:22:26.357Z,20.31
2023-08-05T02:24:28.922Z,20.23
2023-08-05T02:26:31.387Z,20.18
2023-08-05T02:28:33.960Z,20.15
2023-08-05T02:30:36.636Z,20.12
2023-08-05T02:32:39.234Z,20.02
2023-08-05T02:34:41.777Z,20.01
2023-08-05T02:36:44.489Z,19.93
2023-08-05T02:38:47.130Z,19.89
2023-08-05T02:40:49.845Z,19.88
2023-08-05T02:42:52.319Z,19.85
2023-08-05T02:44:54.840Z,19.79
2023-08-05T02:46:57.331Z,19.75
2023-08-05T02:48:59.842Z,19.71
2023-08-05T02:51:02.425Z,19.64
2023-08-05T02:53:05.203Z,19.57
2023-08-05T02:55:08.201Z,19.55
2023-08-05T02:57:10.703Z,19.54
2023-08-05T02:59:13.996Z,19.51
2023-08-05T03:01:16.564Z,19.44
2023-08-05T03:03:19.187Z,19.42
2023-08-05T03:05:21.834Z,19.38
2023-08-05T03:07:24.615Z,19.37
2023-08-05T03:09:27.101Z,19.32
2023-08-05T03:11:33.024Z,19.27
2023-08-05T03:13:35.556Z,19.24
2023-08-05T03:15:38.108Z,19.23
2023-08-05T03:17:40.647Z,19.20
2023-08-05T03:19:43.194Z,19.17
2023-08-05T03:21:45.663Z,19.13
2023-08-05T03:23:48.153Z,19.10
2023-08-05T03:25:50.705Z,19.08
2023-08-05T03:27:53.360Z,19.00
2023-08-05T03:29:55.869Z,18.93
2023-08-05T03:31:58.412Z,18.92
2023-08-05T03:34:00.954Z,18.86
2023-08-05T03:36:03.509Z,18.86
2023-08-05T03:38:06.027Z,18.79
2023-08-05T03:40:09.688Z,18.75
2023-08-05T03:42:12.266Z,18.74
2023-08-05T03:44:14.819Z,18.68
2023-08-05T03:46:17.383Z,18.67
2023-08-05T03:48:20.042Z,18.64
2023-08-05T03:50:22.997Z,18.63
2023-08-05T03:52:27.993Z,18.60
2023-08-05T03:54:30.496Z,18.57
2023-08-05T03:56:33.043Z,18.53
2023-08-05T03:58:35.536Z,18.51
2023-08-05T04:00:42.791Z,18.46
2023-08-05T04:02:45.730Z,18.45
2023-08-05T04:04:48.459Z,18.42
2023-08-05T04:06:51.579Z,18.39
2023-08-05T04:08:55.705Z,18.36
2023-08-05T04:10:58.255Z,18.35
2023-08-05T04:13:02.915Z,18.33
2023-08-05T04:15:07.951Z,18.27
2023-08-05T04:17:10.911Z,18.17
2023-08-05T04:19:13.453Z,18.19
2023-08-05T04:21:16.852Z,18.18
2023-08-05T04:23:22.973Z,18.11
2023-08-05T04:25:26.578Z,18.13
2023-08-05T04:27:29.085Z,18.08
2023-08-05T04:29:31.576Z,18.10
2023-08-05T04:31:34.341Z,18.04
2023-08-05T04:33:36.975Z,18.02
2023-08-05T04:35:39.533Z,18.02
2023-08-05T04:37:42.076Z,17.98
2023-08-05T04:39:46.548Z,17.93
2023-08-05T04:41:49.417Z,17.89
2023-08-05T04:43:52.460Z,17.83
2023-08-05T04:45:56.505Z,17.87
2023-08-05T04:47:59.100Z,17.79
2023-08-05T04:50:01.640Z,17.79
2023-08-05T04:52:08.095Z,17.77
2023-08-05T04:54:10.741Z,17.76
2023-08-05T04:56:13.324Z,17.74
2023-08-05T04:58:15.845Z,17.72
2023-08-05T05:00:18.434Z,17.66
2023-08-05T05:02:21.004Z,17.63
2023-08-05T05:04:23.540Z,17.60
2023-08-05T05:06:26.150Z,17.61
2023-08-05T05:08:29.277Z,17.58
2023-08-05T05:10:31.843Z,17.55
2023-08-05T05:12:34.350Z,17.52
2023-08-05T05:14:44.011Z,17.48
2023-08-05T05:16:46.565Z,17.43
2023-08-05T05:18:49.055Z,17.46
2023-08-05T05:20:52.223Z,17.42
2023-08-05T05:22:54.753Z,17.40
2023-08-05T05:24:57.611Z,17.40
2023-08-05T05:27:00.161Z,17.35
2023-08-05T05:29:02.715Z,17.35
2023-08-05T05:31:05.672Z,17.34
2023-08-05T05:33:08.284Z,17.29
2023-08-05T05:35:10.826Z,17.25
2023-08-05T05:37:13.341Z,17.26
2023-08-05T05:39:15.920Z,17.24
2023-08-05T05:41:18.416Z,17.18
2023-08-05T05:43:20.938Z,17.14
2023-08-05T05:45:23.525Z,17.15
2023-08-05T05:47:26.039Z,17.16
2023-08-05T05:49:29.734Z,17.11
2023-08-05T05:51:32.300Z,17.10
2023-08-05T05:53:34.847Z,17.07
2023-08-05T05:55:37.442Z,17.07
2023-08-05T05:57:39.960Z,17.01
2023-08-05T05:59:44.077Z,17.03
2023-08-05T06:01:46.590Z,16.98
2023-08-05T06:03:49.317Z,16.96
2023-08-05T06:05:52.197Z,16.94
2023-08-05T06:07:54.756Z,16.91
2023-08-05T06:09:57.278Z,16.88
2023-08-05T06:12:00.218Z,16.82
2023-08-05T06:14:02.932Z,16.86
2023-08-05T06:16:06.450Z,16.79
2023-08-05T06:18:10.091Z,16.79
2023-08-05T06:20:13.222Z,16.77
2023-08-05T06:22:15.953Z,16.73
2023-08-05T06:24:18.802Z,16.70
2023-08-05T06:26:21.608Z,16.67
2023-08-05T06:28:24.384Z,16.68
2023-08-05T06:30:27.023Z,16.64
2023-08-05T06:32:29.574Z,16.63
2023-08-05T06:34:32.147Z,16.59
2023-08-05T06:36:34.661Z,16.55
2023-08-05T06:38:37.667Z,16.51
2023-08-05T06:40:43.117Z,16.48
2023-08-05T06:42:46.136Z,16.47
2023-08-05T06:44:50.941Z,16.46
2023-08-05T06:46:53.779Z,16.43
2023-08-05T06:48:56.369Z,16.40
2023-08-05T06:50:59.635Z,16.40
2023-08-05T06:53:02.183Z,16.31
2023-08-05T06:55:05.690Z,16.35
2023-08-05T06:57:08.979Z,16.32
2023-08-05T06:59:11.597Z,16.30
2023-08-05T07:01:14.128Z,16.27
2023-08-05T07:03:16.663Z,16.28
2023-08-05T07:05:21.714Z,16.26
2023-08-05T07:07:24.256Z,16.22
2023-08-05T07:09:26.881Z,16.19
2023-08-05T07:11:29.405Z,16.13
2023-08-05T07:13:31.929Z,16.04
2023-08-05T07:15:38.652Z,16.10
2023-08-05T07:17:41.312Z,16.02
2023-08-05T07:19:43.863Z,16.04
2023-08-05T07:21:46.417Z,16.01
2023-08-05T07:23:50.473Z,16.01
2023-08-05T07:25:53.029Z,15.99
2023-08-05T07:27:55.502Z,15.93
2023-08-05T07:29:57.996Z,15.95
2023-08-05T07:32:00.684Z,15.94
2023-08-05T07:34:04.103Z,15.93
2023-08-05T07:36:14.703Z,15.90
2023-08-05T07:38:19.121Z,15.85
2023-08-05T07:40:21.807Z,15.81
2023-08-05T07:42:27.058Z,15.75
2023-08-05T07:44:30.313Z,15.71
2023-08-05T07:46:33.649Z,15.73
2023-08-05T07:48:41.106Z,15.69
2023-08-05T07:50:43.609Z,15.68
2023-08-05T07:52:46.075Z,15.59
2023-08-05T07:54:48.911Z,15.61
2023-08-05T07:56:51.565Z,15.58
2023-08-05T07:58:54.189Z,15.55
2023-08-05T08:00:58.178Z,15.57
2023-08-05T08:03:00.852Z,15.53
2023-08-05T08:05:06.634Z,15.52
2023-08-05T08:07:10.426Z,15.52
2023-08-05T08:09:14.823Z,15.43
2023-08-05T08:11:17.427Z,15.44
2023-08-05T08:13:19.956Z,15.45
2023-08-05T08:15:22.760Z,15.42
2023-08-05T08:17:25.314Z,15.44
2023-08-05T08:19:27.840Z,15.41
2023-08-05T08:21:30.372Z,15.40
2023-08-05T08:23:32.980Z,15.38
2023-08-05T08:25:38.333Z,15.34
2023-08-05T08:27:40.811Z,15.34
2023-08-05T08:29:43.345Z,15.25
2023-08-05T08:31:45.992Z,15.27
2023-08-05T08:33:48.651Z,15.18
2023-08-05T08:35:51.265Z,15.22
2023-08-05T08:37:53.769Z,15.17
2023-08-05T08:39:56.892Z,15.20
2023-08-05T08:42:00.505Z,15.18
2023-08-05T08:44:04.634Z,15.15
2023-08-05T08:46:09.311Z,15.13
2023-08-05T08:48:13.034Z,15.13
2023-08-05T08:50:17.243Z,15.12
2023-08-05T08:52:20.196Z,15.07
2023-08-05T08:54:28.159Z,15.09
2023-08-05T08:56:32.614Z,15.05
2023-08-05T08:58:35.151Z,15.02
2023-08-05T09:00:38.508Z,15.01
2023-08-05T09:02:42.317Z,14.98
2023-08-05T09:04:48.443Z,14.97
2023-08-05T09:06:51.890Z,14.96
2023-08-05T09:08:54.871Z,14.92
2023-08-05T09:10:57.392Z,14.90
2023-08-05T09:13:00.245Z,14.87
2023-08-05T09:15:03.402Z,14.89
2023-08-05T09:17:06.195Z,14.86
2023-08-05T09:19:09.050Z,14.84
2023-08-05T09:21:11.527Z,14.81
2023-08-05T09:23:14.162Z,14.80
2023-08-05T09:25:16.808Z,14.78
2023-08-05T09:27:19.318Z,14.78
2023-08-05T09:29:22.900Z,14.74
2023-08-05T09:31:26.314Z,14.71
2023-08-05T09:33:29.847Z,14.71
2023-08-05T09:35:32.560Z,14.70
2023-08-05T09:37:35.085Z,14.68
2023-08-05T09:39:48.996Z,14.68
2023-08-05T09:41:53.555Z,14.62
2023-08-05T09:43:56.184Z,14.60
2023-08-05T09:45:59.858Z,14.60
2023-08-05T09:48:11.946Z,14.55
2023-08-05T09:50:17.079Z,14.57
2023-08-05T09:52:25.699Z,14.58
2023-08-05T09:54:32.545Z,14.53
2023-08-05T09:56:35.186Z,14.54
2023-08-05T09:58:39.479Z,14.50
2023-08-05T10:00:42.604Z,14.44
2023-08-05T10:02:48.770Z,14.46
2023-08-05T10:04:53.164Z,14.46
2023-08-05T10:06:56.729Z,14.44
2023-08-05T10:08:59.905Z,14.42
2023-08-05T10:11:03.161Z,14.40
2023-08-05T10:13:10.611Z,14.38
2023-08-05T10:15:21.078Z,14.39
2023-08-05T10:17:24.334Z,14.35
2023-08-05T10:19:32.428Z,14.34
2023-08-05T10:21:39.298Z,14.32
2023-08-05T10:23:41.872Z,14.32
2023-08-05T10:25:48.112Z,14.32
2023-08-05T10:27:50.594Z,14.29
2023-08-05T10:29:54.474Z,14.31
2023-08-05T10:32:30.920Z,14.29
2023-08-05T10:34:33.437Z,14.19
2023-08-05T10:36:49.265Z,14.26
2023-08-05T10:38:51.828Z,14.20
2023-08-05T10:41:05.100Z,14.23
2023-08-05T10:43:08.332Z,14.19
2023-08-05T10:45:11.316Z,14.15
2023-08-05T10:47:13.868Z,14.12
2023-08-05T10:49:16.534Z,14.12
2023-08-05T10:51:20.538Z,14.09
2023-08-05T10:53:24.383Z,14.07
2023-08-05T10:55:28.182Z,14.02
2023-08-05T10:57:46.546Z,13.98
2023-08-05T11:00:00.373Z,13.96
2023-08-05T11:02:04.177Z,14.01
2023-08-05T11:04:30.123Z,13.99
2023-08-05T11:06:39.514Z,13.95
2023-08-05T11:08:45.282Z,13.93
2023-08-05T11:10:48.451Z,13.91
2023-08-05T11:12:56.215Z,13.88
2023-08-05T11:15:00.591Z,13.87
2023-08-05T11:17:09.180Z,13.87
2023-08-05T11:19:12.915Z,13.89
2023-08-05T11:21:16.317Z,13.87
2023-08-05T11:23:18.861Z,13.92
2023-08-05T11:25:21.499Z,13.93
2023-08-05T11:27:39.108Z,13.94
2023-08-05T11:29:50.946Z,13.93
2023-08-05T11:32:00.737Z,13.97
2023-08-05T11:34:03.462Z,13.94
2023-08-05T11:36:06.773Z,13.97
2023-08-05T11:38:10.713Z,14.00
2023-08-05T11:40:13.655Z,14.03
2023-08-05T11:42:16.718Z,14.02
2023-08-05T11:44:20.048Z,14.07
2023-08-05T11:46:33.834Z,14.08
2023-08-05T11:48:43.696Z,14.13
2023-08-05T11:50:47.346Z,14.16
2023-08-05T11:53:08.946Z,14.19
2023-08-05T11:55:11.910Z,14.21
2023-08-05T11:57:20.811Z,14.20
2023-08-05T11:59:41.871Z,14.31
2023-08-05T12:01:44.522Z,14.33
2023-08-05T12:03:47.114Z,14.32
2023-08-05T12:05:49.889Z,14.32
2023-08-05T12:07:52.416Z,14.39
2023-08-05T12:10:13.548Z,14.42
2023-08-05T12:12:17.504Z,14.38
2023-08-05T12:14:20.069Z,14.44
2023-08-05T12:16:22.780Z,14.52
2023-08-05T12:18:25.402Z,14.54
2023-08-05T12:20:29.946Z,14.58
2023-08-05T12:22:32.446Z,14.61
2023-08-05T12:24:34.982Z,14.66
2023-08-05T12:26:37.494Z,14.70
2023-08-05T12:28:40.093Z,14.74
2023-08-05T12:30:42.736Z,14.78
2023-08-05T12:32:45.295Z,14.84
2023-08-05T12:34:47.896Z,14.84
2023-08-05T12:36:50.449Z,14.87
2023-08-05T12:38:54.607Z,14.95
2023-08-05T12:40:57.478Z,14.99
2023-08-05T12:43:00.166Z,15.05
2023-08-05T12:45:07.157Z,15.10
2023-08-05T12:47:12.161Z,15.13
2023-08-05T12:49:14.701Z,15.18
2023-08-05T12:51:17.330Z,15.27
2023-08-05T12:53:19.853Z,15.31
2023-08-05T12:55:22.390Z,15.35
2023-08-05T12:57:24.966Z,15.35
2023-08-05T12:59:27.563Z,15.43
2023-08-05T13:01:30.256Z,15.49
2023-08-05T13:03:32.995Z,15.52
2023-08-05T13:05:35.557Z,15.56
2023-08-05T13:07:38.230Z,15.62
2023-08-05T13:09:41.222Z,15.65
2023-08-05T13:11:43.700Z,15.71
2023-08-05T13:13:46.219Z,15.73
2023-08-05T13:15:48.723Z,15.79
2023-08-05T13:17:51.279Z,15.82
2023-08-05T13:19:53.834Z,15.88
2023-08-05T13:21:56.360Z,15.93
2023-08-05T13:23:58.914Z,15.93
2023-08-05T13:26:01.490Z,16.00
2023-08-05T13:28:04.105Z,16.02
2023-08-05T13:30:07.294Z,16.09
2023-08-05T13:32:09.991Z,16.11
2023-08-05T13:34:12.633Z,16.14
2023-08-05T13:36:15.153Z,16.15
2023-08-05T13:38:17.739Z,16.24
2023-08-05T13:40:21.511Z,16.29
2023-08-05T13:42:24.884Z,16.33
2023-08-05T13:44:28.236Z,16.35
2023-08-05T13:46:30.773Z,16.39
2023-08-05T13:48:37.878Z,16.43
2023-08-05T13:50:40.379Z,16.46
2023-08-05T13:52:43.686Z,16.48
2023-08-05T13:54:46.259Z,16.55
2023-08-05T13:56:48.826Z,16.58
2023-08-05T13:58:51.496Z,16.64
2023-08-05T14:00:59.706Z,16.67
2023-08-05T14:03:02.553Z,16.73
2023-08-05T14:05:05.386Z,16.74
2023-08-05T14:07:07.906Z,16.81
2023-08-05T14:09:10.559Z,16.86
2023-08-05T14:11:13.049Z,16.91
2023-08-05T14:13:15.566Z,16.95
2023-08-05T14:15:18.182Z,16.98
2023-08-05T14:17:20.707Z,17.03
2023-08-05T14:19:23.210Z,17.04
2023-08-05T14:21:26.220Z,17.11
2023-08-05T14:23:28.786Z,17.13
2023-08-05T14:25:31.312Z,17.22
2023-08-05T14:27:34.015Z,17.23
2023-08-05T14:29:36.534Z,17.29
2023-08-05T14:31:39.080Z,17.34
2023-08-05T14:33:41.725Z,17.39
2023-08-05T14:35:44.276Z,17.43
2023-08-05T14:37:46.803Z,17.46
2023-08-05T14:39:49.295Z,17.51
2023-08-05T14:41:52.286Z,17.57
2023-08-05T14:43:55.112Z,17.59
2023-08-05T14:45:57.723Z,17.65
2023-08-05T14:48:00.418Z,17.67
2023-08-05T14:50:03.097Z,17.70
2023-08-05T14:52:06.098Z,17.78
2023-08-05T14:54:10.635Z,17.80
2023-08-05T14:56:13.132Z,17.82
2023-08-05T14:58:15.623Z,17.92
2023-08-05T15:00:18.179Z,17.99
2023-08-05T15:02:21.318Z,18.02
2023-08-05T15:04:23.947Z,18.03
2023-08-05T15:06:26.604Z,18.12
2023-08-05T15:08:29.175Z,18.17
2023-08-05T15:10:31.690Z,18.21
2023-08-05T15:12:34.247Z,18.26
2023-08-05T15:14:36.818Z,18.32
2023-08-05T15:16:39.398Z,18.36
2023-08-05T15:18:44.933Z,18.39
2023-08-05T15:20:47.213Z,18.48
2023-08-05T15:22:49.764Z,18.50
2023-08-05T15:24:52.471Z,18.54
2023-08-05T15:26:54.983Z,18.61
2023-08-05T15:28:57.814Z,18.65
2023-08-05T15:31:00.556Z,18.67
2023-08-05T15:33:03.071Z,18.77
2023-08-05T15:35:07.019Z,18.79
2023-08-05T15:37:09.509Z,18.88
2023-08-05T15:39:12.234Z,18.92
2023-08-05T15:41:15.006Z,18.96
2023-08-05T15:43:18.761Z,19.01
2023-08-05T15:45:21.646Z,19.09
2023-08-05T15:47:24.200Z,19.18
2023-08-05T15:49:29.479Z,19.17
2023-08-05T15:51:33.590Z,19.23
2023-08-05T15:53:36.253Z,19.26
2023-08-05T15:55:38.777Z,19.32
2023-08-05T15:57:41.738Z,19.37
2023-08-05T15:59:44.262Z,19.42
2023-08-05T16:01:46.887Z,19.48
2023-08-05T16:03:49.548Z,19.54
2023-08-05T16:06:10.615Z,19.57
2023-08-05T16:08:13.161Z,19.65
2023-08-05T16:10:15.724Z,19.72
2023-08-05T16:12:18.517Z,19.80
2023-08-05T16:14:21.113Z,19.87
2023-08-05T16:16:23.968Z,19.95
2023-08-05T16:18:26.450Z,20.02
2023-08-05T16:20:29.013Z,20.07
2023-08-05T16:22:31.581Z,20.12
2023-08-05T16:24:34.122Z,20.17
2023-08-05T16:26:36.612Z,20.20
2023-08-05T16:28:39.198Z,20.26
2023-08-05T16:30:41.703Z,20.32
2023-08-05T16:32:44.528Z,20.37
2023-08-05T16:34:47.131Z,20.48
2023-08-05T16:36:49.661Z,20.54
2023-08-05T16:38:52.173Z,20.62
2023-08-05T16:40:55.170Z,20.68
2023-08-05T16:42:57.719Z,20.73
2023-08-05T16:45:00.221Z,20.81
2023-08-05T16:47:02.851Z,20.85
2023-08-05T16:49:08.578Z,20.98
2023-08-05T16:51:11.094Z,21.05
2023-08-05T16:53:13.968Z,21.12
2023-08-05T16:55:16.461Z,21.18
2023-08-05T16:57:18.997Z,21.27
2023-08-05T16:59:21.501Z,21.32
2023-08-05T17:03:26.276Z,21.54
2023-08-05T17:05:28.797Z,21.63
2023-08-05T17:07:31.338Z,21.72
2023-08-05T17:09:33.857Z,21.79
2023-08-05T17:11:36.381Z,21.93
2023-08-05T17:13:38.944Z,22.01
2023-08-05T17:15:45.836Z,22.07
2023-08-05T17:17:48.431Z,22.19
2023-08-05T17:19:50.979Z,22.30
2023-08-05T17:21:53.797Z,22.43
2023-08-05T17:23:56.541Z,22.53
2023-08-05T17:25:59.061Z,22.57
2023-08-05T17:28:01.533Z,22.67
2023-08-05T17:30:04.099Z,22.76
2023-08-05T17:32:07.170Z,22.86
2023-08-05T17:34:10.091Z,22.95
2023-08-05T17:36:12.690Z,23.10
2023-08-05T17:38:15.248Z,23.20
2023-08-05T17:40:17.841Z,23.28
2023-08-05T17:42:20.498Z,23.40
2023-08-05T17:44:23.299Z,23.49
2023-08-05T17:46:25.918Z,23.64
2023-08-05T17:48:28.516Z,23.76
2023-08-05T17:50:31.716Z,23.84
2023-08-05T17:52:34.329Z,23.93
2023-08-05T17:54:36.856Z,24.00
2023-08-05T17:56:40.969Z,24.12
2023-08-05T17:58:43.564Z,24.21
2023-08-05T18:00:46.256Z,24.26
2023-08-05T18:02:48.984Z,24.33
2023-08-05T18:04:51.862Z,24.44
2023-08-05T18:06:54.440Z,24.51
2023-08-05T18:08:57.123Z,24.59
2023-08-05T18:10:59.628Z,24.68
2023-08-05T18:13:02.286Z,24.73
2023-08-05T18:15:05.217Z,24.78
2023-08-05T18:17:07.741Z,24.85
2023-08-05T18:19:10.331Z,24.83
2023-08-05T18:21:13.018Z,24.88
2023-08-05T18:23:15.534Z,24.95
2023-08-05T18:25:18.104Z,25.01
2023-08-05T18:27:20.711Z,25.05
2023-08-05T18:29:23.345Z,25.08
2023-08-05T18:31:25.894Z,25.08
2023-08-05T18:33:28.425Z,25.09
2023-08-05T18:35:31.137Z,25.16
2023-08-05T18:37:33.794Z,25.18
2023-08-05T18:39:36.986Z,25.23
2023-08-05T18:41:39.928Z,25.22
2023-08-05T18:43:42.537Z,25.26
2023-08-05T18:45:45.080Z,25.35
2023-08-05T18:47:47.636Z,25.40
2023-08-05T18:49:50.282Z,25.44
2023-08-05T18:51:53.002Z,25.51
2023-08-05T18:53:55.859Z,25.51
2023-08-05T18:55:58.371Z,25.57
2023-08-05T18:58:00.970Z,25.59
2023-08-05T19:00:04.738Z,25.62
2023-08-05T19:02:07.781Z,25.67
2023-08-05T19:04:10.414Z,25.70
2023-08-05T19:06:12.915Z,25.68
2023-08-05T19:08:15.379Z,25.72
2023-08-05T19:10:18.098Z,25.74
2023-08-05T19:12:20.693Z,25.79
2023-08-05T19:14:23.245Z,25.79
2023-08-05T19:16:25.937Z,25.87
2023-08-05T19:18:29.248Z,25.90
2023-08-05T19:20:35.449Z,25.96
2023-08-05T19:22:38.370Z,25.98
2023-08-05T19:24:40.900Z,26.08
2023-08-05T19:26:43.389Z,26.13
2023-08-05T19:28:45.926Z,26.21
2023-08-05T19:30:48.509Z,26.24
2023-08-05T19:32:52.680Z,26.32
2023-08-05T19:34:57.757Z,26.40
2023-08-05T19:37:00.271Z,26.46
2023-08-05T19:39:02.789Z,26.52
2023-08-05T19:41:05.678Z,26.58
2023-08-05T19:43:08.159Z,26.65
2023-08-05T19:45:10.761Z,26.70
2023-08-05T19:47:13.289Z,26.78
2023-08-05T19:49:16.147Z,26.87
2023-08-05T19:51:18.852Z,26.93
2023-08-05T19:53:22.071Z,26.98
2023-08-05T19:55:24.993Z,27.03
2023-08-05T19:57:27.566Z,27.09
2023-08-05T19:59:30.073Z,27.18
2023-08-05T20:01:32.745Z,27.25
2023-08-05T20:03:35.330Z,27.30
2023-08-05T20:05:37.886Z,27.35
2023-08-05T20:07:40.888Z,27.41
2023-08-05T20:09:43.416Z,27.45
2023-08-05T20:11:45.942Z,27.52
2023-08-05T20:13:48.508Z,27.55
2023-08-05T20:15:57.031Z,27.57
2023-08-05T20:17:59.573Z,27.62
2023-08-05T20:20:02.108Z,27.71
2023-08-05T20:22:04.707Z,27.79
2023-08-05T20:24:07.358Z,27.86
2023-08-05T20:26:13.019Z,27.90
2023-08-05T20:28:15.605Z,27.90
2023-08-05T20:30:18.542Z,27.96
2023-08-05T20:32:21.165Z,27.97
2023-08-05T20:34:23.734Z,27.95
2023-08-05T20:36:26.293Z,27.95
2023-08-05T20:38:29.026Z,27.93
2023-08-05T20:40:31.738Z,27.90
2023-08-05T20:42:34.522Z,27.87
2023-08-05T20:44:37.114Z,27.86
2023-08-05T20:46:39.880Z,27.86
2023-08-05T20:48:48.502Z,27.85
2023-08-05T20:50:58.083Z,27.81
2023-08-05T20:53:00.679Z,27.76
2023-08-05T20:55:03.267Z,27.71
2023-08-05T20:57:06.013Z,27.69
2023-08-05T20:59:08.594Z,27.66
2023-08-05T21:01:13.981Z,27.69
2023-08-05T21:03:16.502Z,27.72
2023-08-05T21:05:19.055Z,27.77
2023-08-05T21:07:21.579Z,27.84
2023-08-05T21:09:24.570Z,27.89
2023-08-05T21:11:27.766Z,27.98
2023-08-05T21:13:30.288Z,28.05
2023-08-05T21:15:32.774Z,28.13
2023-08-05T21:17:35.672Z,28.19
2023-08-05T21:19:38.307Z,28.24
2023-08-05T21:21:40.842Z,28.28
2023-08-05T21:23:45.844Z,28.35
2023-08-05T21:25:48.376Z,28.40
2023-08-05T21:27:50.903Z,28.47
2023-08-05T21:29:53.524Z,28.52
2023-08-05T21:31:56.046Z,28.51
2023-08-05T21:33:58.643Z,28.49
2023-08-05T21:36:01.449Z,28.54
2023-08-05T21:38:05.051Z,28.55
2023-08-05T21:40:08.862Z,28.27
2023-08-05T21:42:11.536Z,28.13
2023-08-05T21:44:14.105Z,28.09
2023-08-05T21:46:16.767Z,27.93
2023-08-05T21:48:22.455Z,27.73
2023-08-05T21:50:24.998Z,27.60
2023-08-05T21:52:27.520Z,27.49
2023-08-05T21:54:30.460Z,27.38
2023-08-05T21:56:35.152Z,27.31
2023-08-05T21:58:37.685Z,27.26
2023-08-05T22:00:40.518Z,27.24
2023-08-05T22:02:43.099Z,27.20
2023-08-05T22:04:46.771Z,27.14
2023-08-05T22:06:49.269Z,27.08
2023-08-05T22:08:51.822Z,27.07
2023-08-05T22:10:54.324Z,26.97
2023-08-05T22:12:56.910Z,26.89
2023-08-05T22:14:59.454Z,26.83
2023-08-05T22:17:02.249Z,26.74
2023-08-05T22:19:04.900Z,26.74
2023-08-05T22:21:08.813Z,26.89
2023-08-05T22:23:11.329Z,26.91
2023-08-05T22:25:13.925Z,27.18
2023-08-05T22:27:16.447Z,27.40
2023-08-05T22:29:18.972Z,27.67
2023-08-05T22:31:21.493Z,27.59
2023-08-05T22:33:24.099Z,27.52
2023-08-05T22:35:29.330Z,27.75
2023-08-05T22:37:31.885Z,28.09
2023-08-05T22:39:59.478Z,28.35
2023-08-05T22:42:02.062Z,28.76
2023-08-05T22:44:04.639Z,28.89
2023-08-05T22:46:07.217Z,28.93
2023-08-05T22:48:09.766Z,29.02
2023-08-05T22:50:12.272Z,28.57
2023-08-05T22:52:14.991Z,28.63
2023-08-05T22:54:17.574Z,28.55
2023-08-05T22:56:20.050Z,28.73
2023-08-05T22:58:22.626Z,28.64
2023-08-05T23:00:25.144Z,28.43
2023-08-05T23:02:27.716Z,28.61
2023-08-05T23:04:30.335Z,28.39
2023-08-05T23:06:32.944Z,28.17
2023-08-05T23:08:35.631Z,28.17
2023-08-05T23:10:38.097Z,28.09
2023-08-05T23:12:40.659Z,27.93
2023-08-05T23:14:43.195Z,27.77
2023-08-05T23:16:46.377Z,27.59
2023-08-05T23:18:50.202Z,27.40
2023-08-05T23:20:52.755Z,27.25
2023-08-05T23:22:55.404Z,27.07
2023-08-05T23:24:58.288Z,26.90
2023-08-05T23:27:00.796Z,26.75
2023-08-05T23:29:03.291Z,26.58
2023-08-05T23:31:06.933Z,26.39
2023-08-05T23:33:10.065Z,26.26
2023-08-05T23:35:12.951Z,26.10
2023-08-05T23:37:15.420Z,25.94
2023-08-05T23:39:17.924Z,25.77
2023-08-05T23:41:20.746Z,25.62
2023-08-05T23:43:23.455Z,25.47
2023-08-05T23:45:25.936Z,25.34
2023-08-05T23:47:28.479Z,25.20
2023-08-05T23:49:30.989Z,25.04
2023-08-05T23:51:33.492Z,24.92
2023-08-05T23:53:36.043Z,24.74
2023-08-05T23:55:38.613Z,24.59
2023-08-05T23:57:41.225Z,24.47
2023-08-05T23:59:43.800Z,24.29
